Time;durP1;ratioP1;P1;durP2;ratioP2;P2;SDS_P1;SDS_P2;PMS_P1;PMS_P2;Temp;Humidity;BMP_temperature;BMP_pressure;BME280_temperature;BME280_humidity;BME280_pressure;Samples;Min_cycle;Max_cycle;Signal;HPM_P1;HPM_P2
2021/11/02 00:01:07;;;;;;;0.50;0.50;;;;;;;6.23;100.00;94284.75;5044851;28;20266;-71
2021/11/02 00:03:36;;;;;;;0.90;0.90;;;;;;;6.15;100.00;94291.94;5045237;28;20214;-71
2021/11/02 00:06:06;;;;;;;0.60;0.60;;;;;;;6.07;100.00;94295.50;5044683;28;20653;-71
2021/11/02 00:08:35;;;;;;;0.73;0.67;;;;;;;6.03;100.00;94298.69;5057392;28;20313;-71
2021/11/02 00:11:04;;;;;;;1.07;1.07;;;;;;;5.95;100.00;94302.25;5047032;28;20241;-71
2021/11/02 00:13:38;;;;;;;0.87;0.87;;;;;;;5.95;100.00;94305.69;5045363;28;20221;-72
2021/11/02 00:16:14;;;;;;;0.53;0.53;;;;;;;5.98;100.00;94302.69;5037448;28;20967;-71
2021/11/02 00:18:45;;;;;;;1.10;1.10;;;;;;;5.97;100.00;94297.63;5053417;28;20714;-71
2021/11/02 00:21:16;;;;;;;1.00;1.00;;;;;;;5.92;100.00;94303.44;5063514;28;20469;-71
2021/11/02 00:23:44;;;;;;;1.20;1.17;;;;;;;5.84;100.00;94300.91;5045466;28;20254;-71
2021/11/02 00:26:14;;;;;;;0.50;0.50;;;;;;;5.84;100.00;94293.06;5066054;28;20226;-71
2021/11/02 00:28:42;;;;;;;1.27;1.10;;;;;;;5.83;100.00;94298.47;5060389;28;20611;-72
2021/11/02 00:31:10;;;;;;;0.80;0.80;;;;;;;5.85;100.00;94307.78;5052120;28;20225;-71
2021/11/02 00:33:38;;;;;;;0.80;0.80;;;;;;;5.84;100.00;94300.91;5057250;28;20307;-71
2021/11/02 00:36:07;;;;;;;0.93;0.90;;;;;;;5.75;100.00;94302.03;5071477;28;20261;-71
2021/11/02 00:38:37;;;;;;;0.80;0.80;;;;;;;5.71;100.00;94300.81;5064068;28;20250;-70
2021/11/02 00:41:05;;;;;;;1.17;1.17;;;;;;;5.64;100.00;94299.91;5061701;28;20221;-70
2021/11/02 00:43:35;;;;;;;2.37;1.10;;;;;;;5.59;100.00;94297.88;5059182;28;20561;-71
2021/11/02 00:46:05;;;;;;;1.20;1.17;;;;;;;5.51;100.00;94294.56;5050481;28;20233;-69
2021/11/02 00:48:33;;;;;;;1.23;1.23;;;;;;;5.34;100.00;94292.19;5058073;28;20217;-70
2021/11/02 00:51:02;;;;;;;0.93;0.93;;;;;;;5.16;100.00;94294.41;5065356;28;20639;-71
2021/11/02 00:53:30;;;;;;;2.50;1.20;;;;;;;4.99;100.00;94291.19;5051533;28;20227;-71
2021/11/02 00:55:59;;;;;;;1.10;0.70;;;;;;;4.88;100.00;94283.00;5063028;28;20710;-72
2021/11/02 00:58:29;;;;;;;0.70;0.70;;;;;;;4.73;100.00;94286.44;5063340;28;20226;-71
2021/11/02 01:00:57;;;;;;;0.97;0.97;;;;;;;4.57;100.00;94286.63;5063383;28;20632;-71
2021/11/02 01:03:26;;;;;;;0.80;0.80;;;;;;;4.42;100.00;94293.66;5063154;28;20715;-71
2021/11/02 01:05:54;;;;;;;2.73;1.17;;;;;;;4.39;100.00;94294.84;5059479;28;20617;-71
2021/11/02 01:08:23;;;;;;;0.90;0.90;;;;;;;4.46;99.63;94279.25;5060497;28;20242;-71
2021/11/02 01:10:52;;;;;;;0.87;0.87;;;;;;;4.25;99.67;94282.56;5057680;28;20218;-71
2021/11/02 01:13:23;;;;;;;1.10;1.00;;;;;;;4.11;99.69;94285.97;5061706;28;20659;-71
2021/11/02 01:15:51;;;;;;;3.13;1.10;;;;;;;4.05;99.95;94284.88;5056646;28;20217;-71
2021/11/02 01:18:19;;;;;;;1.23;1.13;;;;;;;4.04;100.00;94275.44;5056346;28;20263;-71
2021/11/02 01:20:47;;;;;;;1.57;1.27;;;;;;;4.06;100.00;94280.47;5043248;28;20225;-71
2021/11/02 01:23:15;;;;;;;1.33;1.23;;;;;;;3.95;100.00;94264.25;5047872;28;20765;-71
2021/11/02 01:25:45;;;;;;;1.30;1.20;;;;;;;3.90;100.00;94263.16;5059337;28;20232;-70
2021/11/02 01:28:15;;;;;;;1.07;1.07;;;;;;;3.84;100.00;94264.69;5043029;28;20760;-71
2021/11/02 01:30:47;;;;;;;1.07;1.03;;;;;;;3.82;100.00;94261.44;5045089;28;22156;-71
2021/11/02 01:33:18;;;;;;;1.07;1.00;;;;;;;3.79;100.00;94245.34;5048321;28;21830;-71
2021/11/02 01:35:52;;;;;;;1.77;0.70;;;;;;;3.70;100.00;94253.22;5043928;28;20236;-70
2021/11/02 01:38:23;;;;;;;2.07;1.30;;;;;;;3.72;100.00;94243.41;5054575;28;20606;-70
2021/11/02 01:40:56;;;;;;;1.33;1.23;;;;;;;3.81;100.00;94256.41;5041350;28;20228;-71
2021/11/02 01:43:24;;;;;;;1.60;1.50;;;;;;;4.02;100.00;94256.50;5047836;28;20357;-71
2021/11/02 01:45:54;;;;;;;1.47;1.37;;;;;;;4.21;100.00;94250.00;5046956;28;20694;-71
2021/11/02 01:48:27;;;;;;;1.10;1.10;;;;;;;4.26;100.00;94253.66;5048372;28;20232;-71
2021/11/02 01:50:56;;;;;;;1.00;1.00;;;;;;;4.30;100.00;94248.91;5047131;28;20711;-71
2021/11/02 01:53:24;;;;;;;2.10;1.93;;;;;;;4.38;100.00;94245.38;5055892;28;20765;-71
2021/11/02 01:56:01;;;;;;;2.50;2.07;;;;;;;4.44;100.00;94249.88;5048259;28;20309;-71
2021/11/02 01:58:32;;;;;;;1.40;1.30;;;;;;;4.44;100.00;94250.69;5077494;28;20589;-71
2021/11/02 02:01:03;;;;;;;1.60;1.50;;;;;;;4.44;100.00;94255.09;5059295;28;20230;-71
2021/11/02 02:03:48;;;;;;;1.30;1.20;;;;;;;4.41;100.00;94258.09;5051633;28;20305;-72
2021/11/02 02:06:25;;;;;;;1.80;1.70;;;;;;;4.37;100.00;94251.59;5047371;28;20387;-71
2021/11/02 02:09:03;;;;;;;1.57;1.37;;;;;;;4.37;100.00;94248.97;5046886;28;20263;-71
2021/11/02 02:11:47;;;;;;;1.20;1.10;;;;;;;4.36;100.00;94248.16;5046672;28;20346;-71
2021/11/02 02:14:21;;;;;;;1.47;1.37;;;;;;;4.39;100.00;94252.22;5046828;28;20372;-71
2021/11/02 02:16:56;;;;;;;1.50;1.40;;;;;;;4.34;100.00;94247.53;5074366;28;20226;-71
2021/11/02 02:19:45;;;;;;;1.13;1.07;;;;;;;4.34;100.00;94249.34;5070378;28;20232;-72
2021/11/02 02:22:30;;;;;;;1.30;1.20;;;;;;;4.29;100.00;94242.03;5056323;28;20218;-71
2021/11/02 02:25:17;;;;;;;1.10;1.03;;;;;;;4.27;100.00;94249.25;5047490;28;20224;-71
2021/11/02 02:28:11;;;;;;;1.23;1.23;;;;;;;4.28;100.00;94238.63;5043665;28;20234;-71
2021/11/02 02:30:45;;;;;;;1.10;1.10;;;;;;;4.32;100.00;94246.13;5024323;28;20210;-71
2021/11/02 02:33:22;;;;;;;1.10;1.00;;;;;;;4.27;100.00;94237.00;5057878;28;20234;-71
2021/11/02 02:35:50;;;;;;;1.20;1.20;;;;;;;4.24;100.00;94239.16;5046524;28;20224;-72
2021/11/02 02:38:22;;;;;;;1.00;1.00;;;;;;;4.12;100.00;94238.81;5047033;28;20802;-71
2021/11/02 02:40:54;;;;;;;0.77;0.77;;;;;;;3.96;100.00;94234.56;5063114;28;20219;-71
2021/11/02 02:43:30;;;;;;;1.33;1.23;;;;;;;3.84;100.00;94232.53;5046303;28;20302;-72
2021/11/02 02:46:01;;;;;;;1.20;0.73;;;;;;;3.65;100.00;94228.66;5059910;28;20222;-71
2021/11/02 02:48:33;;;;;;;0.87;0.87;;;;;;;3.62;100.00;94236.84;5047390;28;20223;-72
2021/11/02 02:51:03;;;;;;;0.77;0.57;;;;;;;3.57;100.00;94241.78;5045336;28;20266;-71
2021/11/02 02:53:34;;;;;;;0.97;0.93;;;;;;;3.45;100.00;94237.94;5048278;28;20223;-71
2021/11/02 02:56:03;;;;;;;1.07;0.63;;;;;;;3.37;100.00;94231.81;5063533;28;20449;-71
2021/11/02 02:58:37;;;;;;;2.83;1.20;;;;;;;3.34;100.00;94233.97;5049054;28;20230;-71
2021/11/02 03:01:08;;;;;;;1.23;1.20;;;;;;;3.29;100.00;94237.09;5047625;28;20313;-73
2021/11/02 03:03:41;;;;;;;1.63;0.90;;;;;;;3.33;100.00;94232.34;5059961;28;20222;-72
2021/11/02 03:06:17;;;;;;;0.90;0.90;;;;;;;3.25;100.00;94232.41;5065109;28;20215;-73
2021/11/02 03:08:48;;;;;;;1.10;1.00;;;;;;;3.32;100.00;94233.34;5063984;28;20229;-73
2021/11/02 03:11:17;;;;;;;1.37;1.27;;;;;;;3.38;100.00;94235.22;5063577;28;20219;-73
2021/11/02 03:13:51;;;;;;;1.30;1.20;;;;;;;3.53;100.00;94225.66;5046877;28;20248;-73
2021/11/02 03:16:32;;;;;;;1.00;0.87;;;;;;;3.63;100.00;94226.22;5047011;28;20214;-74
2021/11/02 03:50:38;;;;;;;2.97;1.53;;;;;;;3.11;100.00;94221.75;5030327;28;20581;-74
2021/11/02 03:56:02;;;;;;;1.07;0.97;;;;;;;3.19;100.00;94225.25;5041149;28;20825;-74
2021/11/02 03:58:37;;;;;;;0.80;0.80;;;;;;;3.20;100.00;94224.28;5049359;28;20230;-74
2021/11/02 04:23:55;;;;;;;1.10;1.00;;;;;;;3.95;100.00;94224.31;5033641;28;20219;-74
2021/11/02 04:27:02;;;;;;;1.20;1.10;;;;;;;4.00;100.00;94224.56;5051034;28;20229;-73
2021/11/02 05:06:42;;;;;;;0.60;0.60;;;;;;;4.71;100.00;94230.94;4992411;28;20301;-72
2021/11/02 05:07:17;;;;;;;0.67;0.67;;;;;;;4.87;100.00;94229.94;5054322;28;20226;-71
2021/11/02 05:46:55;;;;;;;0.60;0.60;;;;;;;5.14;100.00;94226.59;5044671;28;20539;-69
2021/11/02 05:49:33;;;;;;;0.90;0.50;;;;;;;5.07;100.00;94228.31;5037390;28;20261;-68
2021/11/02 05:57:49;;;;;;;1.77;0.83;;;;;;;5.03;100.00;94221.03;5042504;28;20226;-69
2021/11/02 06:00:25;;;;;;;1.03;1.00;;;;;;;5.11;100.00;94220.91;5038269;28;20305;-69
2021/11/02 06:05:47;;;;;;;0.50;0.50;;;;;;;5.13;100.00;94221.56;5037786;28;20291;-69
2021/11/02 06:11:28;;;;;;;0.50;0.50;;;;;;;5.07;100.00;94230.94;5003114;28;20241;-69
2021/11/02 06:28:20;;;;;;;0.27;0.20;;;;;;;4.54;100.00;94245.19;5041214;28;20325;-69
2021/11/02 06:30:54;;;;;;;0.87;0.33;;;;;;;4.47;100.00;94244.28;5041926;28;20222;-69
2021/11/02 06:33:42;;;;;;;0.50;0.50;;;;;;;4.41;100.00;94239.81;5036401;28;20474;-68
2021/11/02 06:39:23;;;;;;;0.80;0.57;;;;;;;4.38;100.00;94250.59;4996350;28;20264;-68
2021/11/02 06:53:38;;;;;;;0.83;0.63;;;;;;;4.48;100.00;94264.19;5024777;28;20279;-69
2021/11/02 06:56:33;;;;;;;0.50;0.43;;;;;;;4.50;100.00;94262.22;5018024;28;20219;-69
2021/11/02 07:15:11;;;;;;;0.97;0.97;;;;;;;4.76;100.00;94267.00;5034499;28;20237;-68
2021/11/02 07:19:28;;;;;;;0.50;0.50;;;;;;;5.11;100.00;94270.59;5038646;28;20763;-69
2021/11/02 07:22:11;;;;;;;1.23;1.13;;;;;;;5.30;100.00;94271.78;5040820;28;20791;-68
2021/11/02 07:24:47;;;;;;;1.30;1.30;;;;;;;5.48;100.00;94268.75;5036321;28;20271;-69
2021/11/02 07:27:31;;;;;;;1.50;0.87;;;;;;;5.65;100.00;94268.31;5043669;28;20228;-69
2021/11/02 08:46:36;;;;;;;0.40;0.30;;;;;;;12.93;71.55;94251.78;4981296;28;20316;-69
2021/11/02 08:49:07;;;;;;;0.97;0.93;;;;;;;13.65;70.06;94246.09;4983761;28;20216;-71
2021/11/02 08:51:35;;;;;;;1.80;1.50;;;;;;;14.06;67.35;94249.44;5015859;28;20219;-69
2021/11/02 08:54:03;;;;;;;1.20;0.40;;;;;;;14.42;67.15;94243.66;5021270;28;20234;-69
2021/11/02 08:56:31;;;;;;;2.63;1.07;;;;;;;14.64;65.38;94246.44;5020459;28;20646;-69
2021/11/02 08:59:00;;;;;;;0.20;0.20;;;;;;;14.05;65.87;94247.84;5020898;28;20708;-68
2021/11/02 09:01:47;;;;;;;3.13;1.23;;;;;;;14.93;64.33;94244.44;5017757;28;20311;-69
2021/11/02 09:04:18;;;;;;;0.33;0.33;;;;;;;14.74;64.39;94248.44;5022853;28;20324;-69
2021/11/02 09:06:50;;;;;;;1.03;0.30;;;;;;;15.38;63.19;94238.09;5020002;28;20599;-69
2021/11/02 09:09:19;;;;;;;1.60;0.30;;;;;;;15.86;60.73;94237.31;5019597;28;20773;-69
2021/11/02 09:11:48;;;;;;;0.80;0.37;;;;;;;16.12;61.02;94230.38;5020304;28;20222;-70
2021/11/02 09:14:18;;;;;;;0.73;0.30;;;;;;;15.10;60.62;94222.34;5034068;28;20271;-69
2021/11/02 09:16:50;;;;;;;0.50;0.23;;;;;;;15.71;61.72;94233.69;5036862;28;20292;-69
2021/11/02 09:19:19;;;;;;;0.70;0.33;;;;;;;16.30;60.34;94236.38;5039389;28;20226;-69
2021/11/02 09:21:48;;;;;;;0.60;0.40;;;;;;;16.51;60.24;94232.81;5044989;28;20250;-69
2021/11/02 09:24:17;;;;;;;0.90;0.30;;;;;;;16.96;57.51;94234.19;5043022;28;20238;-69
2021/11/02 09:26:45;;;;;;;0.50;0.30;;;;;;;15.87;58.96;94238.91;5046873;28;20293;-69
2021/11/02 09:29:14;;;;;;;0.33;0.33;;;;;;;16.17;60.29;94240.25;5042119;28;20325;-69
2021/11/02 09:31:42;;;;;;;0.53;0.53;;;;;;;16.20;60.41;94237.09;5029004;28;20704;-70
2021/11/02 09:34:12;;;;;;;1.77;1.57;;;;;;;16.51;59.84;94227.47;5040414;28;20230;-69
2021/11/02 09:36:45;;;;;;;0.47;0.23;;;;;;;16.50;57.17;94225.88;5047631;28;20306;-70
2021/11/02 09:39:14;;;;;;;5.07;1.17;;;;;;;16.36;58.36;94230.03;5034781;28;20232;-69
2021/11/02 09:42:27;;;;;;;0.20;0.20;;;;;;;16.86;57.28;94224.28;5042607;28;20227;-70
2021/11/02 09:45:32;;;;;;;0.50;0.40;;;;;;;17.05;57.60;94230.78;4942567;28;20305;-69
2021/11/02 09:48:26;;;;;;;1.70;0.30;;;;;;;17.45;56.62;94225.88;5035120;28;20231;-69
2021/11/02 09:51:25;;;;;;;0.77;0.77;;;;;;;16.96;55.87;94229.66;5041724;28;20313;-69
2021/11/02 09:54:36;;;;;;;1.70;0.57;;;;;;;18.03;55.68;94226.59;5034672;28;20776;-70
2021/11/02 09:57:29;;;;;;;0.40;0.37;;;;;;;16.83;57.35;94240.78;5020670;28;20603;-70
2021/11/02 10:00:12;;;;;;;0.60;0.20;;;;;;;16.38;59.11;94238.56;5016219;28;20307;-69
2021/11/02 10:03:11;;;;;;;0.97;0.30;;;;;;;17.04;57.51;94236.38;5017782;28;20239;-69
2021/11/02 10:06:39;;;;;;;0.10;0.10;;;;;;;17.84;56.35;94232.44;5010887;28;20286;-70
2021/11/02 10:09:12;;;;;;;0.30;0.10;;;;;;;17.23;57.35;94234.88;5010566;28;20570;-70
2021/11/02 10:11:45;;;;;;;0.20;0.20;;;;;;;17.44;56.78;94229.59;5020819;28;20447;-70
2021/11/02 10:15:11;;;;;;;0.30;0.20;;;;;;;16.38;57.65;94233.25;5038413;28;20364;-69
2021/11/02 10:18:19;;;;;;;0.60;0.20;;;;;;;14.76;62.52;94239.16;5007263;28;20224;-70
2021/11/02 10:21:21;;;;;;;0.73;0.20;;;;;;;13.66;66.35;94250.34;5019835;28;20307;-69
2021/11/02 10:24:23;;;;;;;1.90;0.20;;;;;;;12.51;68.78;94254.56;5014924;28;20219;-69
2021/11/02 10:27:14;;;;;;;0.70;0.27;;;;;;;12.20;70.98;94258.34;5021897;28;20565;-69
2021/11/02 10:30:26;;;;;;;1.80;0.40;;;;;;;11.01;74.83;94264.41;5022630;28;20288;-69
2021/11/02 10:33:03;;;;;;;1.43;0.37;;;;;;;10.15;76.46;94271.28;5020165;28;20281;-69
2021/11/02 10:35:43;;;;;;;1.27;0.20;;;;;;;9.68;76.18;94269.97;5016363;28;20225;-70
2021/11/02 10:38:20;;;;;;;0.30;0.20;;;;;;;9.73;77.82;94278.06;5019808;28;20223;-70
2021/11/02 10:40:58;;;;;;;0.50;0.40;;;;;;;9.51;81.26;94282.03;5013552;28;20256;-69
2021/11/02 10:43:52;;;;;;;0.93;0.50;;;;;;;9.48;81.87;94275.38;5004012;28;20224;-69
2021/11/02 10:46:28;;;;;;;0.53;0.27;;;;;;;9.43;82.60;94282.31;5017526;28;20224;-69
2021/11/02 10:48:59;;;;;;;4.10;1.07;;;;;;;9.36;81.75;94288.41;5013575;28;20228;-69
2021/11/02 10:51:38;;;;;;;2.73;0.30;;;;;;;9.29;84.29;94282.34;5012974;28;20235;-69
2021/11/02 10:54:21;;;;;;;6.33;1.90;;;;;;;8.75;83.05;94291.44;5014489;28;20220;-69
2021/11/02 10:57:06;;;;;;;2.13;0.30;;;;;;;8.73;84.23;94285.59;5032396;28;20252;-69
2021/11/02 10:59:33;;;;;;;0.30;0.30;;;;;;;8.67;84.26;94277.69;5021382;28;20742;-69
2021/11/02 11:02:05;;;;;;;0.60;0.60;;;;;;;8.69;86.54;94287.03;5024466;28;20223;-70
2021/11/02 11:04:35;;;;;;;0.90;0.67;;;;;;;8.65;86.67;94280.53;5018382;28;20223;-70
2021/11/02 11:07:04;;;;;;;0.47;0.33;;;;;;;8.80;87.77;94288.19;5032734;28;20531;-69
2021/11/02 11:09:35;;;;;;;1.47;0.20;;;;;;;9.00;87.47;94285.50;5016125;28;20370;-69
2021/11/02 11:12:09;;;;;;;0.87;0.50;;;;;;;9.13;88.03;94288.09;5020514;28;20273;-70
2021/11/02 11:14:38;;;;;;;1.27;1.17;;;;;;;9.16;85.76;94281.63;5032489;28;20227;-69
2021/11/02 11:17:11;;;;;;;3.20;1.20;;;;;;;9.02;85.70;94276.38;5015238;28;20301;-69
2021/11/02 11:19:44;;;;;;;0.37;0.20;;;;;;;9.16;85.67;94271.91;5016278;28;20224;-69
2021/11/02 11:22:20;;;;;;;4.40;0.40;;;;;;;9.25;85.10;94277.72;5011256;28;20246;-69
2021/11/02 11:25:00;;;;;;;1.70;1.13;;;;;;;9.25;84.13;94275.09;5016061;28;20680;-69
2021/11/02 11:27:29;;;;;;;0.73;0.43;;;;;;;9.22;85.97;94276.31;5011156;28;20689;-69
2021/11/02 11:30:05;;;;;;;0.57;0.57;;;;;;;9.19;85.89;94282.00;5011553;28;20256;-70
2021/11/02 11:32:35;;;;;;;0.80;0.80;;;;;;;9.14;85.45;94276.53;5017001;28;20747;-69
2021/11/02 11:35:04;;;;;;;0.30;0.20;;;;;;;9.11;85.07;94279.59;5015009;28;20228;-70
2021/11/02 11:37:37;;;;;;;1.07;0.10;;;;;;;8.90;82.66;94293.03;5014434;28;20774;-70
2021/11/02 11:40:10;;;;;;;1.27;0.20;;;;;;;8.70;83.97;94282.56;5008813;28;20227;-70
2021/11/02 11:42:39;;;;;;;0.20;0.10;;;;;;;8.88;83.10;94279.28;5018974;28;20284;-70
2021/11/02 11:45:11;;;;;;;0.10;0.10;;;;;;;9.13;84.02;94277.56;5013511;28;20234;-69
2021/11/02 11:47:39;;;;;;;0.10;0.10;;;;;;;8.82;84.02;94271.19;5002790;28;20395;-70
2021/11/02 11:50:17;;;;;;;0.20;0.10;;;;;;;9.04;84.20;94278.81;5013345;28;20245;-70
2021/11/02 11:52:47;;;;;;;0.57;0.13;;;;;;;8.67;83.13;94272.44;5014071;28;20247;-69
2021/11/02 11:55:26;;;;;;;0.00;0.00;;;;;;;8.70;84.59;94280.75;5019551;28;20695;-69
2021/11/02 11:58:06;;;;;;;0.00;0.00;;;;;;;8.54;82.46;94273.28;5034914;28;20224;-69
2021/11/02 12:00:36;;;;;;;1.80;0.10;;;;;;;8.57;82.46;94266.81;5017779;28;20708;-69
2021/11/02 12:03:09;;;;;;;0.20;0.10;;;;;;;8.64;84.33;94273.66;5014456;28;20268;-69
2021/11/02 12:05:43;;;;;;;0.10;0.10;;;;;;;8.62;84.80;94265.19;5018206;28;20294;-69
2021/11/02 12:08:16;;;;;;;0.07;0.07;;;;;;;8.59;83.86;94277.91;5020216;28;20755;-69
2021/11/02 12:10:46;;;;;;;0.10;0.10;;;;;;;8.69;84.48;94273.88;5021820;28;20293;-69
2021/11/02 12:13:14;;;;;;;0.10;0.10;;;;;;;8.83;84.40;94267.53;5019778;28;20223;-70
2021/11/02 12:15:49;;;;;;;0.10;0.10;;;;;;;8.76;83.30;94265.94;5014401;28;20246;-70
2021/11/02 12:18:20;;;;;;;0.63;0.10;;;;;;;9.05;83.50;94269.88;5006085;28;20234;-69
2021/11/02 12:20:52;;;;;;;0.10;0.10;;;;;;;9.30;84.35;94256.84;5010869;28;20251;-69
2021/11/02 12:23:36;;;;;;;0.10;0.10;;;;;;;9.29;83.88;94256.03;5004159;28;20827;-70
2021/11/02 12:26:07;;;;;;;0.40;0.30;;;;;;;9.34;83.03;94250.94;5015683;28;20743;-70
2021/11/02 12:28:38;;;;;;;0.40;0.20;;;;;;;9.27;83.35;94252.81;5021341;28;20225;-69
2021/11/02 12:31:09;;;;;;;0.10;0.10;;;;;;;9.26;82.75;94245.94;5021684;28;20295;-69
2021/11/02 12:33:44;;;;;;;0.43;0.43;;;;;;;9.37;83.80;94247.88;5017827;28;20243;-69
2021/11/02 12:36:19;;;;;;;0.50;0.50;;;;;;;9.22;83.38;94249.97;5015505;28;20277;-69
2021/11/02 12:38:48;;;;;;;0.10;0.10;;;;;;;9.27;83.86;94252.81;5024109;28;20235;-69
2021/11/02 12:41:20;;;;;;;0.30;0.27;;;;;;;9.53;82.34;94251.06;5016847;28;20239;-69
2021/11/02 12:44:02;;;;;;;0.20;0.10;;;;;;;9.68;82.63;94241.00;5025278;28;20333;-69
2021/11/02 12:46:32;;;;;;;0.20;0.20;;;;;;;9.68;82.38;94248.91;5021215;28;20223;-69
2021/11/02 12:49:01;;;;;;;0.10;0.10;;;;;;;9.87;82.52;94237.44;5024466;28;20276;-69
2021/11/02 12:51:35;;;;;;;0.10;0.10;;;;;;;9.93;80.67;94249.75;5009290;28;20740;-69
2021/11/02 12:54:08;;;;;;;1.60;0.53;;;;;;;10.10;77.13;94246.59;5024579;28;20745;-69
2021/11/02 12:56:42;;;;;;;0.30;0.20;;;;;;;10.13;78.64;94236.41;5020582;28;20306;-69
2021/11/02 12:59:21;;;;;;;0.20;0.10;;;;;;;10.02;79.60;94237.13;5019900;28;20223;-69
2021/11/02 13:01:52;;;;;;;0.10;0.10;;;;;;;10.35;80.53;94223.69;5022030;28;20705;-69
2021/11/02 13:04:20;;;;;;;1.23;0.20;;;;;;;10.44;80.09;94222.41;5012980;28;20228;-70
2021/11/02 13:06:50;;;;;;;0.20;0.10;;;;;;;10.34;79.54;94227.34;5042875;28;20738;-70
2021/11/02 13:09:20;;;;;;;0.97;0.10;;;;;;;10.09;78.61;94223.91;5038513;28;20314;-69
2021/11/02 13:12:03;;;;;;;0.20;0.10;;;;;;;10.03;79.01;94224.75;5040508;28;20301;-69
2021/11/02 13:14:37;;;;;;;0.10;0.10;;;;;;;9.97;79.33;94226.44;5040258;28;20223;-69
2021/11/02 13:17:09;;;;;;;0.20;0.20;;;;;;;10.18;78.91;94225.25;5027233;28;20258;-70
2021/11/02 13:19:39;;;;;;;0.10;0.10;;;;;;;10.41;81.05;94225.44;5026489;28;20231;-70
2021/11/02 13:22:13;;;;;;;0.10;0.10;;;;;;;10.51;78.39;94223.13;5025460;28;20257;-70
2021/11/02 13:24:55;;;;;;;0.10;0.10;;;;;;;10.52;78.23;94214.19;5024689;28;20333;-70
2021/11/02 13:27:38;;;;;;;0.27;0.27;;;;;;;10.44;79.63;94222.41;5013832;28;20227;-70
2021/11/02 13:30:25;;;;;;;0.10;0.10;;;;;;;10.47;79.96;94218.50;5025321;28;20233;-70
2021/11/02 13:33:05;;;;;;;1.90;0.10;;;;;;;10.29;79.67;94224.56;5024492;28;20365;-70
2021/11/02 13:36:01;;;;;;;0.20;0.10;;;;;;;10.05;81.12;94233.25;5041023;28;20246;-70
2021/11/02 13:38:33;;;;;;;1.83;0.30;;;;;;;10.10;80.77;94230.78;5008624;28;20248;-70
2021/11/02 13:41:06;;;;;;;0.10;0.10;;;;;;;9.87;79.67;94216.34;5021643;28;20224;-70
2021/11/02 13:43:38;;;;;;;2.57;0.20;;;;;;;9.75;80.20;94223.34;5034543;28;20259;-70
2021/11/02 13:46:08;;;;;;;0.17;0.10;;;;;;;9.75;80.64;94220.72;5024495;28;21146;-70
2021/11/02 13:48:37;;;;;;;1.87;0.30;;;;;;;9.80;81.46;94220.88;5016003;28;20226;-70
2021/11/02 13:51:06;;;;;;;0.30;0.30;;;;;;;10.00;81.30;94227.81;5018263;28;20305;-70
2021/11/02 13:53:34;;;;;;;0.10;0.10;;;;;;;10.04;79.36;94231.63;5019568;28;20310;-70
2021/11/02 13:56:05;;;;;;;0.10;0.10;;;;;;;9.94;78.23;94238.19;5020297;28;20298;-70
2021/11/02 13:58:37;;;;;;;0.30;0.30;;;;;;;9.68;79.95;94233.91;5019422;28;20254;-70
2021/11/02 14:01:07;;;;;;;0.20;0.20;;;;;;;9.70;80.96;94236.38;5011283;28;20286;-69
2021/11/02 14:03:43;;;;;;;0.10;0.10;;;;;;;9.74;80.75;94237.53;5011950;28;20229;-71
2021/11/02 14:06:12;;;;;;;0.23;0.20;;;;;;;9.57;80.80;94242.50;5009903;28;20248;-70
2021/11/02 14:08:41;;;;;;;0.00;0.00;;;;;;;9.27;81.34;94244.91;5025828;28;20732;-70
2021/11/02 14:11:22;;;;;;;0.23;0.20;;;;;;;9.05;80.62;94241.78;5013582;28;20248;-70
2021/11/02 14:13:54;;;;;;;0.10;0.10;;;;;;;9.06;81.68;94240.75;5016868;28;20619;-69
2021/11/02 14:16:37;;;;;;;0.10;0.10;;;;;;;8.96;80.93;94231.66;5042057;28;20237;-70
2021/11/02 14:19:27;;;;;;;0.10;0.10;;;;;;;8.96;81.86;94239.56;5017444;28;20270;-70
2021/11/02 14:21:55;;;;;;;0.20;0.17;;;;;;;9.07;83.00;94244.19;5015971;28;20485;-71
2021/11/02 14:24:34;;;;;;;0.40;0.40;;;;;;;9.23;82.69;94240.25;5010443;28;20218;-70
2021/11/02 14:27:03;;;;;;;0.20;0.20;;;;;;;9.35;83.23;94239.41;5013422;28;20230;-70
2021/11/02 14:29:46;;;;;;;0.20;0.20;;;;;;;9.43;82.54;94240.19;5018308;28;20222;-70
2021/11/02 14:32:54;;;;;;;0.23;0.17;;;;;;;9.81;81.34;94232.22;5024018;28;20457;-70
2021/11/02 14:35:40;;;;;;;0.30;0.30;;;;;;;9.98;79.90;94239.41;5001680;28;20258;-70
2021/11/02 14:38:10;;;;;;;0.30;0.20;;;;;;;9.85;80.56;94238.66;5003311;28;20226;-70
2021/11/02 14:40:39;;;;;;;0.10;0.10;;;;;;;9.65;80.41;94241.44;5004226;28;20233;-71
2021/11/02 14:43:32;;;;;;;0.63;0.10;;;;;;;9.23;79.32;94251.59;5016383;28;20219;-71
2021/11/02 14:46:04;;;;;;;0.10;0.10;;;;;;;9.01;81.14;94237.13;5012049;28;20227;-69
2021/11/02 14:48:51;;;;;;;0.10;0.10;;;;;;;9.12;82.19;94252.25;5003601;28;20306;-70
2021/11/02 14:51:28;;;;;;;0.10;0.10;;;;;;;9.03;80.54;94235.09;5001490;28;20652;-70
2021/11/02 14:53:58;;;;;;;0.10;0.10;;;;;;;9.06;81.82;94239.97;5001734;28;20223;-70
2021/11/02 14:56:32;;;;;;;1.70;0.10;;;;;;;9.10;81.09;94241.13;5004018;28;20231;-70
2021/11/02 14:59:02;;;;;;;0.10;0.10;;;;;;;9.12;81.32;94241.72;5003283;28;20519;-71
2021/11/02 15:02:07;;;;;;;0.27;0.27;;;;;;;9.16;81.12;94244.78;5004176;28;20224;-70
2021/11/02 15:04:37;;;;;;;0.10;0.10;;;;;;;9.11;80.90;94248.81;5003341;28;20235;-70
2021/11/02 15:07:05;;;;;;;0.20;0.10;;;;;;;8.94;80.99;94254.75;5024052;28;20219;-70
2021/11/02 15:09:37;;;;;;;0.10;0.10;;;;;;;8.86;81.32;94249.72;5025424;28;20654;-70
2021/11/02 15:12:07;;;;;;;0.40;0.40;;;;;;;8.70;81.80;94251.81;5019868;28;20481;-70
2021/11/02 15:14:39;;;;;;;0.10;0.10;;;;;;;8.54;82.58;94262.75;5017154;28;20240;-70
2021/11/02 15:17:11;;;;;;;0.10;0.10;;;;;;;8.51;82.18;94255.31;5028568;28;20280;-70
2021/11/02 15:19:43;;;;;;;0.87;0.10;;;;;;;8.41;83.23;94268.03;5038947;28;20253;-70
2021/11/02 15:22:13;;;;;;;0.10;0.10;;;;;;;8.19;83.32;94272.69;5042097;28;20711;-70
2021/11/02 15:24:42;;;;;;;0.10;0.10;;;;;;;8.21;83.63;94271.47;5042109;28;20222;-70
2021/11/02 15:27:12;;;;;;;0.30;0.30;;;;;;;8.06;84.27;94270.88;5046473;28;20225;-70
2021/11/02 15:29:42;;;;;;;0.20;0.20;;;;;;;8.12;84.62;94280.56;5046954;28;20775;-70
2021/11/02 15:32:14;;;;;;;0.53;0.53;;;;;;;8.31;84.07;94283.38;5034520;28;20216;-70
2021/11/02 15:34:48;;;;;;;0.20;0.20;;;;;;;8.26;84.18;94282.19;5046600;28;20298;-70
2021/11/02 15:37:18;;;;;;;0.10;0.10;;;;;;;8.12;84.03;94282.38;5046503;28;20299;-70
2021/11/02 15:39:54;;;;;;;0.53;0.53;;;;;;;7.97;85.16;94287.84;5043760;28;20800;-70
2021/11/02 15:42:31;;;;;;;0.53;0.30;;;;;;;7.84;85.94;94277.31;5040856;28;20219;-70
2021/11/02 15:45:01;;;;;;;0.77;0.77;;;;;;;7.75;86.29;94287.19;5044876;28;20269;-69
2021/11/02 15:47:33;;;;;;;0.20;0.20;;;;;;;7.57;87.04;94276.47;5044242;28;20273;-69
2021/11/02 15:50:04;;;;;;;0.30;0.10;;;;;;;7.52;86.92;94290.19;5035325;28;20243;-69
2021/11/02 15:52:34;;;;;;;0.63;0.50;;;;;;;7.46;87.74;94293.59;5033362;28;20271;-69
2021/11/02 15:55:05;;;;;;;0.30;0.30;;;;;;;7.37;88.07;94286.91;5044435;28;20223;-69
2021/11/02 15:57:39;;;;;;;0.10;0.10;;;;;;;7.36;87.81;94282.69;5047397;28;20222;-70
2021/11/02 16:00:08;;;;;;;0.87;0.87;;;;;;;7.25;88.31;94289.31;5046204;28;20355;-70
2021/11/02 16:02:40;;;;;;;0.83;0.30;;;;;;;7.19;88.98;94284.03;5041308;28;20251;-70
2021/11/02 16:05:11;;;;;;;0.20;0.20;;;;;;;7.19;88.83;94291.91;5031489;28;20302;-70
2021/11/02 16:07:39;;;;;;;2.00;0.30;;;;;;;7.05;88.84;94297.13;5024547;28;20215;-70
2021/11/02 16:10:08;;;;;;;0.50;0.40;;;;;;;6.99;89.18;94300.50;5025056;28;20215;-70
2021/11/02 16:12:39;;;;;;;1.03;0.40;;;;;;;6.97;89.71;94302.53;5021915;28;20659;-70
2021/11/02 16:15:14;;;;;;;0.20;0.10;;;;;;;6.86;89.78;94305.72;5023397;28;20223;-70
2021/11/02 16:17:46;;;;;;;12.43;0.40;;;;;;;6.75;90.39;94303.59;5023395;28;20229;-70
2021/11/02 16:20:17;;;;;;;0.37;0.27;;;;;;;6.70;90.57;94308.63;5041763;28;20250;-70
2021/11/02 16:22:57;;;;;;;0.10;0.10;;;;;;;6.69;90.10;94310.44;5025504;28;20305;-70
2021/11/02 16:25:48;;;;;;;0.10;0.10;;;;;;;6.79;89.86;94312.72;5023190;28;20709;-73
2021/11/02 16:28:19;;;;;;;0.30;0.30;;;;;;;6.76;90.12;94318.31;5021047;28;20230;-73
2021/11/02 16:30:49;;;;;;;0.20;0.20;;;;;;;6.74;90.74;94329.00;5021939;28;20223;-72
2021/11/02 16:33:19;;;;;;;0.40;0.40;;;;;;;6.83;91.04;94332.28;5022417;28;20239;-72
2021/11/02 16:35:52;;;;;;;0.50;0.50;;;;;;;6.91;90.92;94332.13;5041911;28;20226;-72
2021/11/02 16:38:27;;;;;;;0.20;0.20;;;;;;;7.01;91.15;94335.22;5032971;28;20772;-72